sensor_id;sensor_type;location;lat;lon;timestamp;temperature;humidity
4245;DHT22;2136;48.502;9.194;2022-07-22T00:01:05;21.70;85.80
4245;DHT22;2136;48.502;9.194;2022-07-22T00:03:32;21.70;85.40
4245;DHT22;2136;48.502;9.194;2022-07-22T00:05:59;21.60;86.20
4245;DHT22;2136;48.502;9.194;2022-07-22T00:08:25;21.60;87.60
4245;DHT22;2136;48.502;9.194;2022-07-22T00:10:54;21.60;88.10
4245;DHT22;2136;48.502;9.194;2022-07-22T00:13:21;21.60;88.20
4245;DHT22;2136;48.502;9.194;2022-07-22T00:15:48;21.50;88.50
4245;DHT22;2136;48.502;9.194;2022-07-22T00:18:15;21.50;88.50
4245;DHT22;2136;48.502;9.194;2022-07-22T00:20:41;21.50;88.40
4245;DHT22;2136;48.502;9.194;2022-07-22T00:23:08;21.50;88.20
4245;DHT22;2136;48.502;9.194;2022-07-22T00:25:35;21.50;89.30
4245;DHT22;2136;48.502;9.194;2022-07-22T00:28:04;21.40;89.70
4245;DHT22;2136;48.502;9.194;2022-07-22T00:30:31;21.40;89.70
4245;DHT22;2136;48.502;9.194;2022-07-22T00:32:58;21.40;88.70
4245;DHT22;2136;48.502;9.194;2022-07-22T00:35:24;21.30;88.10
4245;DHT22;2136;48.502;9.194;2022-07-22T00:37:51;21.30;87.30
4245;DHT22;2136;48.502;9.194;2022-07-22T00:40:18;21.30;87.00
4245;DHT22;2136;48.502;9.194;2022-07-22T00:42:45;21.20;87.60
4245;DHT22;2136;48.502;9.194;2022-07-22T00:45:14;21.20;87.80
4245;DHT22;2136;48.502;9.194;2022-07-22T00:47:41;21.20;88.40
4245;DHT22;2136;48.502;9.194;2022-07-22T00:50:08;21.10;88.80
4245;DHT22;2136;48.502;9.194;2022-07-22T00:52:35;21.10;89.50
4245;DHT22;2136;48.502;9.194;2022-07-22T00:55:03;21.00;89.70
4245;DHT22;2136;48.502;9.194;2022-07-22T00:57:31;21.00;90.00
4245;DHT22;2136;48.502;9.194;2022-07-22T00:59:57;21.00;90.40
4245;DHT22;2136;48.502;9.194;2022-07-22T01:02:26;20.90;90.60
4245;DHT22;2136;48.502;9.194;2022-07-22T01:04:52;20.90;90.70
4245;DHT22;2136;48.502;9.194;2022-07-22T01:07:19;20.80;90.90
4245;DHT22;2136;48.502;9.194;2022-07-22T01:09:46;20.80;91.00
4245;DHT22;2136;48.502;9.194;2022-07-22T01:12:13;20.80;91.30
4245;DHT22;2136;48.502;9.194;2022-07-22T01:14:41;20.80;91.90
4245;DHT22;2136;48.502;9.194;2022-07-22T01:17:07;20.70;92.40
4245;DHT22;2136;48.502;9.194;2022-07-22T01:19:36;20.70;92.70
4245;DHT22;2136;48.502;9.194;2022-07-22T01:22:05;20.70;92.60
4245;DHT22;2136;48.502;9.194;2022-07-22T01:24:32;20.70;93.10
4245;DHT22;2136;48.502;9.194;2022-07-22T01:26:59;20.60;93.70
4245;DHT22;2136;48.502;9.194;2022-07-22T01:29:26;20.60;93.90
4245;DHT22;2136;48.502;9.194;2022-07-22T01:31:53;20.60;94.00
4245;DHT22;2136;48.502;9.194;2022-07-22T01:34:20;20.60;93.90
4245;DHT22;2136;48.502;9.194;2022-07-22T01:36:47;20.50;93.90
4245;DHT22;2136;48.502;9.194;2022-07-22T01:39:15;20.50;94.10
4245;DHT22;2136;48.502;9.194;2022-07-22T01:41:42;20.50;94.10
4245;DHT22;2136;48.502;9.194;2022-07-22T01:44:09;20.50;94.50
4245;DHT22;2136;48.502;9.194;2022-07-22T01:46:37;20.50;94.80
4245;DHT22;2136;48.502;9.194;2022-07-22T01:49:04;20.50;94.20
4245;DHT22;2136;48.502;9.194;2022-07-22T01:51:30;20.50;93.60
4245;DHT22;2136;48.502;9.194;2022-07-22T01:53:57;20.40;93.50
4245;DHT22;2136;48.502;9.194;2022-07-22T01:56:25;20.40;93.70
4245;DHT22;2136;48.502;9.194;2022-07-22T01:58:52;20.40;94.10
4245;DHT22;2136;48.502;9.194;2022-07-22T02:01:19;20.40;94.30
4245;DHT22;2136;48.502;9.194;2022-07-22T02:03:46;20.40;94.30
4245;DHT22;2136;48.502;9.194;2022-07-22T02:06:13;20.40;94.20
4245;DHT22;2136;48.502;9.194;2022-07-22T02:08:40;20.40;94.20
4245;DHT22;2136;48.502;9.194;2022-07-22T02:11:07;20.40;93.60
4245;DHT22;2136;48.502;9.194;2022-07-22T02:13:35;20.40;93.50
4245;DHT22;2136;48.502;9.194;2022-07-22T02:16:02;20.30;93.40
4245;DHT22;2136;48.502;9.194;2022-07-22T02:18:29;20.30;93.20
4245;DHT22;2136;48.502;9.194;2022-07-22T02:20:56;20.30;93.90
4245;DHT22;2136;48.502;9.194;2022-07-22T02:23:23;20.30;94.80
4245;DHT22;2136;48.502;9.194;2022-07-22T02:25:50;20.20;95.00
4245;DHT22;2136;48.502;9.194;2022-07-22T02:28:17;20.20;94.80
4245;DHT22;2136;48.502;9.194;2022-07-22T02:30:45;20.20;95.00
4245;DHT22;2136;48.502;9.194;2022-07-22T02:33:12;20.20;94.90
4245;DHT22;2136;48.502;9.194;2022-07-22T02:35:40;20.10;95.30
4245;DHT22;2136;48.502;9.194;2022-07-22T02:38:07;20.10;96.60
4245;DHT22;2136;48.502;9.194;2022-07-22T02:40:34;20.10;96.70
4245;DHT22;2136;48.502;9.194;2022-07-22T02:43:00;20.00;96.40
4245;DHT22;2136;48.502;9.194;2022-07-22T02:45:27;20.00;96.30
4245;DHT22;2136;48.502;9.194;2022-07-22T02:47:56;20.00;96.90
4245;DHT22;2136;48.502;9.194;2022-07-22T02:50:23;20.00;96.70
4245;DHT22;2136;48.502;9.194;2022-07-22T02:52:50;20.00;96.50
4245;DHT22;2136;48.502;9.194;2022-07-22T02:55:18;20.00;96.50
4245;DHT22;2136;48.502;9.194;2022-07-22T02:57:45;19.90;96.50
4245;DHT22;2136;48.502;9.194;2022-07-22T03:00:13;19.90;96.80
4245;DHT22;2136;48.502;9.194;2022-07-22T03:02:40;19.90;97.00
4245;DHT22;2136;48.502;9.194;2022-07-22T03:05:09;19.90;96.90
4245;DHT22;2136;48.502;9.194;2022-07-22T03:07:36;19.80;96.70
4245;DHT22;2136;48.502;9.194;2022-07-22T03:10:03;19.90;96.70
4245;DHT22;2136;48.502;9.194;2022-07-22T03:12:30;19.90;96.60
4245;DHT22;2136;48.502;9.194;2022-07-22T03:14:57;19.80;96.60
4245;DHT22;2136;48.502;9.194;2022-07-22T03:17:24;19.80;96.40
4245;DHT22;2136;48.502;9.194;2022-07-22T03:19:51;19.80;96.60
4245;DHT22;2136;48.502;9.194;2022-07-22T03:22:19;19.80;96.70
4245;DHT22;2136;48.502;9.194;2022-07-22T03:24:46;19.80;97.00
4245;DHT22;2136;48.502;9.194;2022-07-22T03:27:13;19.70;96.90
4245;DHT22;2136;48.502;9.194;2022-07-22T03:29:40;19.70;96.90
4245;DHT22;2136;48.502;9.194;2022-07-22T03:32:06;19.70;96.50
4245;DHT22;2136;48.502;9.194;2022-07-22T03:34:33;19.60;95.90
4245;DHT22;2136;48.502;9.194;2022-07-22T03:37:00;19.70;95.50
4245;DHT22;2136;48.502;9.194;2022-07-22T03:39:29;19.70;94.60
4245;DHT22;2136;48.502;9.194;2022-07-22T03:41:56;19.60;94.70
4245;DHT22;2136;48.502;9.194;2022-07-22T03:44:23;19.60;94.60
4245;DHT22;2136;48.502;9.194;2022-07-22T03:46:50;19.50;95.20
4245;DHT22;2136;48.502;9.194;2022-07-22T03:49:16;19.50;95.40
4245;DHT22;2136;48.502;9.194;2022-07-22T03:51:43;19.50;96.30
4245;DHT22;2136;48.502;9.194;2022-07-22T03:54:10;19.50;97.10
4245;DHT22;2136;48.502;9.194;2022-07-22T03:56:38;19.40;97.30
4245;DHT22;2136;48.502;9.194;2022-07-22T03:59:06;19.40;97.40
4245;DHT22;2136;48.502;9.194;2022-07-22T04:01:32;19.40;97.90
4245;DHT22;2136;48.502;9.194;2022-07-22T04:03:59;19.40;97.70
4245;DHT22;2136;48.502;9.194;2022-07-22T04:06:26;19.40;98.20
4245;DHT22;2136;48.502;9.194;2022-07-22T04:08:53;19.40;98.20
4245;DHT22;2136;48.502;9.194;2022-07-22T04:11:20;19.40;98.20
4245;DHT22;2136;48.502;9.194;2022-07-22T04:13:48;19.30;98.10
4245;DHT22;2136;48.502;9.194;2022-07-22T04:16:15;19.30;98.10
4245;DHT22;2136;48.502;9.194;2022-07-22T04:18:42;19.30;98.30
4245;DHT22;2136;48.502;9.194;2022-07-22T04:21:09;19.30;98.20
4245;DHT22;2136;48.502;9.194;2022-07-22T04:23:36;19.30;98.30
4245;DHT22;2136;48.502;9.194;2022-07-22T04:26:05;19.30;98.10
4245;DHT22;2136;48.502;9.194;2022-07-22T04:28:32;19.30;97.90
4245;DHT22;2136;48.502;9.194;2022-07-22T04:31:01;19.30;98.00
4245;DHT22;2136;48.502;9.194;2022-07-22T04:33:28;19.30;98.00
4245;DHT22;2136;48.502;9.194;2022-07-22T04:35:55;19.30;98.20
4245;DHT22;2136;48.502;9.194;2022-07-22T04:38:22;19.30;98.50
4245;DHT22;2136;48.502;9.194;2022-07-22T04:40:49;19.30;98.80
4245;DHT22;2136;48.502;9.194;2022-07-22T04:43:16;19.40;98.90
4245;DHT22;2136;48.502;9.194;2022-07-22T04:45:43;19.40;99.00
4245;DHT22;2136;48.502;9.194;2022-07-22T04:48:11;19.40;98.60
4245;DHT22;2136;48.502;9.194;2022-07-22T04:50:38;19.40;97.80
4245;DHT22;2136;48.502;9.194;2022-07-22T04:53:04;19.40;97.40
4245;DHT22;2136;48.502;9.194;2022-07-22T04:55:31;19.40;97.50
4245;DHT22;2136;48.502;9.194;2022-07-22T04:57:58;19.40;97.50
4245;DHT22;2136;48.502;9.194;2022-07-22T05:00:25;19.50;97.40
4245;DHT22;2136;48.502;9.194;2022-07-22T05:02:52;19.50;97.20
4245;DHT22;2136;48.502;9.194;2022-07-22T05:05:21;19.50;96.60
4245;DHT22;2136;48.502;9.194;2022-07-22T05:07:48;19.50;96.90
4245;DHT22;2136;48.502;9.194;2022-07-22T05:10:15;19.50;97.20
4245;DHT22;2136;48.502;9.194;2022-07-22T05:12:42;19.50;97.20
4245;DHT22;2136;48.502;9.194;2022-07-22T05:15:09;19.50;97.10
4245;DHT22;2136;48.502;9.194;2022-07-22T05:17:36;19.60;97.00
4245;DHT22;2136;48.502;9.194;2022-07-22T05:20:04;19.60;96.90
4245;DHT22;2136;48.502;9.194;2022-07-22T05:22:32;19.60;96.70
4245;DHT22;2136;48.502;9.194;2022-07-22T05:24:59;19.60;96.40
4245;DHT22;2136;48.502;9.194;2022-07-22T05:27:26;19.60;96.30
4245;DHT22;2136;48.502;9.194;2022-07-22T05:29:52;19.70;96.10
4245;DHT22;2136;48.502;9.194;2022-07-22T05:32:19;19.70;95.60
4245;DHT22;2136;48.502;9.194;2022-07-22T05:34:46;19.70;95.50
4245;DHT22;2136;48.502;9.194;2022-07-22T05:37:13;19.80;95.20
4245;DHT22;2136;48.502;9.194;2022-07-22T05:39:42;19.80;95.00
4245;DHT22;2136;48.502;9.194;2022-07-22T05:42:09;19.90;95.00
4245;DHT22;2136;48.502;9.194;2022-07-22T05:44:36;19.90;94.60
4245;DHT22;2136;48.502;9.194;2022-07-22T05:47:03;19.90;94.20
4245;DHT22;2136;48.502;9.194;2022-07-22T05:49:30;19.90;94.10
4245;DHT22;2136;48.502;9.194;2022-07-22T05:51:57;20.00;94.10
4245;DHT22;2136;48.502;9.194;2022-07-22T05:54:26;20.00;94.10
4245;DHT22;2136;48.502;9.194;2022-07-22T05:56:54;20.10;94.00
4245;DHT22;2136;48.502;9.194;2022-07-22T05:59:21;20.20;94.00
4245;DHT22;2136;48.502;9.194;2022-07-22T06:01:47;20.20;93.70
4245;DHT22;2136;48.502;9.194;2022-07-22T06:04:14;20.30;93.40
4245;DHT22;2136;48.502;9.194;2022-07-22T06:06:41;20.30;93.20
4245;DHT22;2136;48.502;9.194;2022-07-22T06:09:08;20.40;93.10
4245;DHT22;2136;48.502;9.194;2022-07-22T06:11:35;20.50;93.00
4245;DHT22;2136;48.502;9.194;2022-07-22T06:14:03;20.50;92.50
4245;DHT22;2136;48.502;9.194;2022-07-22T06:16:30;20.60;92.00
4245;DHT22;2136;48.502;9.194;2022-07-22T06:18:57;20.60;91.80
4245;DHT22;2136;48.502;9.194;2022-07-22T06:21:24;20.60;91.30
4245;DHT22;2136;48.502;9.194;2022-07-22T06:23:51;20.70;90.80
4245;DHT22;2136;48.502;9.194;2022-07-22T06:26:18;20.80;90.70
4245;DHT22;2136;48.502;9.194;2022-07-22T06:28:45;20.90;90.50
4245;DHT22;2136;48.502;9.194;2022-07-22T06:31:13;20.90;90.10
4245;DHT22;2136;48.502;9.194;2022-07-22T06:33:42;20.90;89.20
4245;DHT22;2136;48.502;9.194;2022-07-22T06:36:09;21.00;88.80
4245;DHT22;2136;48.502;9.194;2022-07-22T06:38:35;21.10;89.00
4245;DHT22;2136;48.502;9.194;2022-07-22T06:41:02;21.20;89.00
4245;DHT22;2136;48.502;9.194;2022-07-22T06:43:29;21.30;88.10
4245;DHT22;2136;48.502;9.194;2022-07-22T06:45:56;21.30;87.70
4245;DHT22;2136;48.502;9.194;2022-07-22T06:48:24;21.40;87.50
4245;DHT22;2136;48.502;9.194;2022-07-22T06:50:51;21.50;87.00
4245;DHT22;2136;48.502;9.194;2022-07-22T06:53:18;21.50;85.90
4245;DHT22;2136;48.502;9.194;2022-07-22T06:55:45;21.60;86.00
4245;DHT22;2136;48.502;9.194;2022-07-22T06:58:12;21.60;85.00
4245;DHT22;2136;48.502;9.194;2022-07-22T07:10:54;22.10;85.20
4245;DHT22;2136;48.502;9.194;2022-07-22T07:13:21;22.10;85.20
4245;DHT22;2136;48.502;9.194;2022-07-22T07:15:48;22.20;84.10
4245;DHT22;2136;48.502;9.194;2022-07-22T07:18:15;22.30;84.10
4245;DHT22;2136;48.502;9.194;2022-07-22T07:20:42;22.40;83.90
4245;DHT22;2136;48.502;9.194;2022-07-22T07:23:09;22.50;83.20
4245;DHT22;2136;48.502;9.194;2022-07-22T07:25:36;22.50;82.20
4245;DHT22;2136;48.502;9.194;2022-07-22T07:28:04;22.60;81.30
4245;DHT22;2136;48.502;9.194;2022-07-22T07:30:31;22.70;81.80
4245;DHT22;2136;48.502;9.194;2022-07-22T07:32:58;22.80;82.70
4245;DHT22;2136;48.502;9.194;2022-07-22T07:35:26;22.80;82.60
4245;DHT22;2136;48.502;9.194;2022-07-22T07:37:53;22.90;82.40
4245;DHT22;2136;48.502;9.194;2022-07-22T07:40:20;23.00;81.90
4245;DHT22;2136;48.502;9.194;2022-07-22T07:42:47;23.20;80.60
4245;DHT22;2136;48.502;9.194;2022-07-22T07:45:16;23.30;80.20
4245;DHT22;2136;48.502;9.194;2022-07-22T07:47:42;23.40;78.90
4245;DHT22;2136;48.502;9.194;2022-07-22T07:50:10;23.40;77.50
4245;DHT22;2136;48.502;9.194;2022-07-22T07:52:37;23.50;77.70
4245;DHT22;2136;48.502;9.194;2022-07-22T07:55:05;23.60;77.30
4245;DHT22;2136;48.502;9.194;2022-07-22T07:57:32;23.70;77.00
4245;DHT22;2136;48.502;9.194;2022-07-22T07:59:59;23.80;76.20
4245;DHT22;2136;48.502;9.194;2022-07-22T08:02:27;23.90;74.90
4245;DHT22;2136;48.502;9.194;2022-07-22T08:04:54;24.00;74.80
4245;DHT22;2136;48.502;9.194;2022-07-22T08:07:21;24.20;75.20
4245;DHT22;2136;48.502;9.194;2022-07-22T08:09:48;24.30;74.20
4245;DHT22;2136;48.502;9.194;2022-07-22T08:12:15;24.40;73.20
4245;DHT22;2136;48.502;9.194;2022-07-22T08:14:42;24.50;72.90
4245;DHT22;2136;48.502;9.194;2022-07-22T08:17:09;24.60;72.70
4245;DHT22;2136;48.502;9.194;2022-07-22T08:19:37;24.70;72.90
4245;DHT22;2136;48.502;9.194;2022-07-22T08:22:04;24.80;72.50
4245;DHT22;2136;48.502;9.194;2022-07-22T08:24:31;24.90;72.50
4245;DHT22;2136;48.502;9.194;2022-07-22T08:26:58;25.00;72.90
4245;DHT22;2136;48.502;9.194;2022-07-22T08:29:25;25.10;72.90
4245;DHT22;2136;48.502;9.194;2022-07-22T08:31:51;25.20;71.90
4245;DHT22;2136;48.502;9.194;2022-07-22T08:34:18;25.30;71.10
4245;DHT22;2136;48.502;9.194;2022-07-22T08:36:46;25.40;71.20
4245;DHT22;2136;48.502;9.194;2022-07-22T08:39:13;25.50;71.40
4245;DHT22;2136;48.502;9.194;2022-07-22T08:41:40;25.60;71.60
4245;DHT22;2136;48.502;9.194;2022-07-22T08:44:09;25.70;71.00
4245;DHT22;2136;48.502;9.194;2022-07-22T08:46:36;25.80;70.40
4245;DHT22;2136;48.502;9.194;2022-07-22T08:49:03;25.90;70.00
4245;DHT22;2136;48.502;9.194;2022-07-22T08:51:32;26.10;69.60
4245;DHT22;2136;48.502;9.194;2022-07-22T08:54:00;26.20;68.80
4245;DHT22;2136;48.502;9.194;2022-07-22T08:56:27;26.30;68.00
4245;DHT22;2136;48.502;9.194;2022-07-22T08:58:54;26.50;67.50
4245;DHT22;2136;48.502;9.194;2022-07-22T09:01:21;26.60;66.90
4245;DHT22;2136;48.502;9.194;2022-07-22T09:03:51;26.80;67.00
4245;DHT22;2136;48.502;9.194;2022-07-22T09:06:22;26.90;67.20
4245;DHT22;2136;48.502;9.194;2022-07-22T09:08:51;27.10;66.50
4245;DHT22;2136;48.502;9.194;2022-07-22T09:11:21;27.30;65.40
4245;DHT22;2136;48.502;9.194;2022-07-22T09:13:48;27.50;64.70
4245;DHT22;2136;48.502;9.194;2022-07-22T09:16:15;27.60;63.70
4245;DHT22;2136;48.502;9.194;2022-07-22T09:18:47;27.90;64.30
4245;DHT22;2136;48.502;9.194;2022-07-22T09:21:14;28.00;63.60
4245;DHT22;2136;48.502;9.194;2022-07-22T09:23:41;28.20;62.00
4245;DHT22;2136;48.502;9.194;2022-07-22T09:26:09;28.40;61.40
4245;DHT22;2136;48.502;9.194;2022-07-22T09:28:57;28.60;61.90
4245;DHT22;2136;48.502;9.194;2022-07-22T09:31:25;28.90;61.40
4245;DHT22;2136;48.502;9.194;2022-07-22T09:33:52;29.00;60.20
4245;DHT22;2136;48.502;9.194;2022-07-22T09:36:20;29.10;59.90
4245;DHT22;2136;48.502;9.194;2022-07-22T09:38:47;29.30;60.60
4245;DHT22;2136;48.502;9.194;2022-07-22T09:41:14;29.50;59.50
4245;DHT22;2136;48.502;9.194;2022-07-22T09:43:41;29.60;58.70
4245;DHT22;2136;48.502;9.194;2022-07-22T09:46:09;29.80;57.90
4245;DHT22;2136;48.502;9.194;2022-07-22T09:48:39;29.90;57.50
4245;DHT22;2136;48.502;9.194;2022-07-22T09:51:06;30.10;58.20
4245;DHT22;2136;48.502;9.194;2022-07-22T09:53:33;30.50;56.80
4245;DHT22;2136;48.502;9.194;2022-07-22T09:56:02;31.20;57.30
4245;DHT22;2136;48.502;9.194;2022-07-22T09:58:30;31.90;55.20
4245;DHT22;2136;48.502;9.194;2022-07-22T10:00:59;32.50;54.40
4245;DHT22;2136;48.502;9.194;2022-07-22T10:03:32;33.10;52.50
4245;DHT22;2136;48.502;9.194;2022-07-22T10:06:00;34.10;51.10
4245;DHT22;2136;48.502;9.194;2022-07-22T10:08:31;35.10;47.40
4245;DHT22;2136;48.502;9.194;2022-07-22T10:11:00;36.50;45.80
4245;DHT22;2136;48.502;9.194;2022-07-22T10:13:27;38.20;43.20
4245;DHT22;2136;48.502;9.194;2022-07-22T10:15:55;39.80;41.50
4245;DHT22;2136;48.502;9.194;2022-07-22T10:18:23;41.60;38.70
4245;DHT22;2136;48.502;9.194;2022-07-22T10:21:03;43.10;36.50
4245;DHT22;2136;48.502;9.194;2022-07-22T10:23:30;44.60;34.70
4245;DHT22;2136;48.502;9.194;2022-07-22T10:25:58;46.20;32.10
4245;DHT22;2136;48.502;9.194;2022-07-22T10:28:26;47.50;30.10
4245;DHT22;2136;48.502;9.194;2022-07-22T10:31:07;48.70;29.80
4245;DHT22;2136;48.502;9.194;2022-07-22T10:33:43;49.70;28.30
4245;DHT22;2136;48.502;9.194;2022-07-22T10:36:12;50.90;27.80
4245;DHT22;2136;48.502;9.194;2022-07-22T10:41:33;53.00;26.10
4245;DHT22;2136;48.502;9.194;2022-07-22T10:44:00;53.80;25.50
4245;DHT22;2136;48.502;9.194;2022-07-22T10:46:47;54.60;25.00
4245;DHT22;2136;48.502;9.194;2022-07-22T10:49:15;55.20;24.10
4245;DHT22;2136;48.502;9.194;2022-07-22T10:57:50;56.50;23.00
4245;DHT22;2136;48.502;9.194;2022-07-22T11:00:17;57.10;22.90
4245;DHT22;2136;48.502;9.194;2022-07-22T11:02:44;57.50;22.80
4245;DHT22;2136;48.502;9.194;2022-07-22T11:05:11;58.10;22.30
4245;DHT22;2136;48.502;9.194;2022-07-22T11:07:41;58.40;22.00
4245;DHT22;2136;48.502;9.194;2022-07-22T11:10:09;58.70;22.20
4245;DHT22;2136;48.502;9.194;2022-07-22T11:12:36;59.20;21.40
4245;DHT22;2136;48.502;9.194;2022-07-22T11:15:06;59.50;21.30
4245;DHT22;2136;48.502;9.194;2022-07-22T11:17:33;59.90;20.70
4245;DHT22;2136;48.502;9.194;2022-07-22T11:20:01;60.30;20.50
4245;DHT22;2136;48.502;9.194;2022-07-22T11:22:28;60.70;20.30
4245;DHT22;2136;48.502;9.194;2022-07-22T11:24:56;60.90;20.30
4245;DHT22;2136;48.502;9.194;2022-07-22T11:27:23;60.90;20.50
4245;DHT22;2136;48.502;9.194;2022-07-22T11:29:51;60.90;20.30
4245;DHT22;2136;48.502;9.194;2022-07-22T11:32:22;60.80;20.60
4245;DHT22;2136;48.502;9.194;2022-07-22T11:34:49;60.60;20.30
4245;DHT22;2136;48.502;9.194;2022-07-22T11:37:18;60.80;20.40
4245;DHT22;2136;48.502;9.194;2022-07-22T11:39:45;60.90;20.30
4245;DHT22;2136;48.502;9.194;2022-07-22T11:42:13;60.80;20.30
4245;DHT22;2136;48.502;9.194;2022-07-22T11:44:40;60.80;20.00
4245;DHT22;2136;48.502;9.194;2022-07-22T11:47:07;60.80;20.00
4245;DHT22;2136;48.502;9.194;2022-07-22T11:49:37;60.80;19.90
4245;DHT22;2136;48.502;9.194;2022-07-22T11:52:08;60.80;19.70
4245;DHT22;2136;48.502;9.194;2022-07-22T11:54:38;60.80;20.00
4245;DHT22;2136;48.502;9.194;2022-07-22T11:57:05;60.90;19.70
4245;DHT22;2136;48.502;9.194;2022-07-22T11:59:33;61.20;19.30
4245;DHT22;2136;48.502;9.194;2022-07-22T12:02:01;61.20;19.20
4245;DHT22;2136;48.502;9.194;2022-07-22T12:04:29;61.30;19.30
4245;DHT22;2136;48.502;9.194;2022-07-22T12:07:00;61.30;19.40
4245;DHT22;2136;48.502;9.194;2022-07-22T12:09:30;60.70;19.30
4245;DHT22;2136;48.502;9.194;2022-07-22T12:11:57;59.00;19.50
4245;DHT22;2136;48.502;9.194;2022-07-22T12:14:25;56.80;19.70
4245;DHT22;2136;48.502;9.194;2022-07-22T12:16:57;54.50;20.70
4245;DHT22;2136;48.502;9.194;2022-07-22T12:19:26;52.20;21.50
4245;DHT22;2136;48.502;9.194;2022-07-22T12:21:56;50.00;23.40
4245;DHT22;2136;48.502;9.194;2022-07-22T12:24:29;47.90;24.90
4245;DHT22;2136;48.502;9.194;2022-07-22T12:26:58;46.00;25.70
4245;DHT22;2136;48.502;9.194;2022-07-22T12:29:27;44.40;27.50
4245;DHT22;2136;48.502;9.194;2022-07-22T12:31:56;43.00;28.10
4245;DHT22;2136;48.502;9.194;2022-07-22T12:34:35;41.90;29.90
4245;DHT22;2136;48.502;9.194;2022-07-22T12:37:13;41.00;30.90
4245;DHT22;2136;48.502;9.194;2022-07-22T12:39:52;40.30;31.30
4245;DHT22;2136;48.502;9.194;2022-07-22T12:42:19;40.60;31.80
4245;DHT22;2136;48.502;9.194;2022-07-22T12:44:58;42.30;31.50
4245;DHT22;2136;48.502;9.194;2022-07-22T12:47:47;44.40;30.00
4245;DHT22;2136;48.502;9.194;2022-07-22T12:50:20;45.70;28.50
4245;DHT22;2136;48.502;9.194;2022-07-22T12:52:48;45.50;27.90
4245;DHT22;2136;48.502;9.194;2022-07-22T12:55:18;44.70;27.60
4245;DHT22;2136;48.502;9.194;2022-07-22T12:57:45;44.00;28.40
4245;DHT22;2136;48.502;9.194;2022-07-22T13:00:17;43.20;29.10
4245;DHT22;2136;48.502;9.194;2022-07-22T13:02:44;42.50;30.00
4245;DHT22;2136;48.502;9.194;2022-07-22T13:05:11;42.60;29.80
4245;DHT22;2136;48.502;9.194;2022-07-22T13:07:38;43.30;29.10
4245;DHT22;2136;48.502;9.194;2022-07-22T13:10:06;44.30;29.10
4245;DHT22;2136;48.502;9.194;2022-07-22T13:12:34;44.50;28.30
4245;DHT22;2136;48.502;9.194;2022-07-22T13:15:01;44.00;28.30
4245;DHT22;2136;48.502;9.194;2022-07-22T13:17:28;43.40;28.90
4245;DHT22;2136;48.502;9.194;2022-07-22T13:19:55;42.70;29.10
4245;DHT22;2136;48.502;9.194;2022-07-22T13:22:22;41.90;30.00
4245;DHT22;2136;48.502;9.194;2022-07-22T13:24:49;41.10;30.30
4245;DHT22;2136;48.502;9.194;2022-07-22T13:27:16;40.30;31.20
4245;DHT22;2136;48.502;9.194;2022-07-22T13:29:44;39.70;32.20
4245;DHT22;2136;48.502;9.194;2022-07-22T13:32:11;39.10;32.70
4245;DHT22;2136;48.502;9.194;2022-07-22T13:34:38;38.70;33.60
4245;DHT22;2136;48.502;9.194;2022-07-22T13:37:05;38.30;34.00
4245;DHT22;2136;48.502;9.194;2022-07-22T13:39:32;37.90;34.50
4245;DHT22;2136;48.502;9.194;2022-07-22T13:41:59;37.50;34.50
4245;DHT22;2136;48.502;9.194;2022-07-22T13:44:26;37.10;34.50
4245;DHT22;2136;48.502;9.194;2022-07-22T13:46:56;36.60;36.70
4245;DHT22;2136;48.502;9.194;2022-07-22T13:49:23;36.30;36.90
4245;DHT22;2136;48.502;9.194;2022-07-22T13:51:50;36.20;37.30
4245;DHT22;2136;48.502;9.194;2022-07-22T13:54:17;36.20;37.00
4245;DHT22;2136;48.502;9.194;2022-07-22T13:56:44;36.60;37.00
4245;DHT22;2136;48.502;9.194;2022-07-22T13:59:13;37.10;37.20
4245;DHT22;2136;48.502;9.194;2022-07-22T14:01:40;37.40;36.60
4245;DHT22;2136;48.502;9.194;2022-07-22T14:04:09;37.40;36.00
4245;DHT22;2136;48.502;9.194;2022-07-22T14:06:36;37.50;36.00
4245;DHT22;2136;48.502;9.194;2022-07-22T14:09:04;37.80;36.70
4245;DHT22;2136;48.502;9.194;2022-07-22T14:11:31;38.30;35.90
4245;DHT22;2136;48.502;9.194;2022-07-22T14:13:58;38.60;35.10
4245;DHT22;2136;48.502;9.194;2022-07-22T14:16:24;38.90;35.80
4245;DHT22;2136;48.502;9.194;2022-07-22T14:19:01;39.30;34.70
4245;DHT22;2136;48.502;9.194;2022-07-22T14:21:30;39.70;34.50
4245;DHT22;2136;48.502;9.194;2022-07-22T14:23:57;39.90;33.40
4245;DHT22;2136;48.502;9.194;2022-07-22T14:26:24;39.90;32.70
4245;DHT22;2136;48.502;9.194;2022-07-22T14:28:51;39.80;33.20
4245;DHT22;2136;48.502;9.194;2022-07-22T14:31:18;39.50;33.00
4245;DHT22;2136;48.502;9.194;2022-07-22T14:33:45;39.10;32.60
4245;DHT22;2136;48.502;9.194;2022-07-22T14:36:12;38.60;33.40
4245;DHT22;2136;48.502;9.194;2022-07-22T14:38:40;38.30;33.80
4245;DHT22;2136;48.502;9.194;2022-07-22T14:41:07;38.00;34.30
4245;DHT22;2136;48.502;9.194;2022-07-22T14:43:34;37.70;34.40
4245;DHT22;2136;48.502;9.194;2022-07-22T14:46:02;37.70;35.60
4245;DHT22;2136;48.502;9.194;2022-07-22T14:48:29;37.50;35.00
4245;DHT22;2136;48.502;9.194;2022-07-22T14:50:56;37.30;35.10
4245;DHT22;2136;48.502;9.194;2022-07-22T14:53:23;37.00;35.70
4245;DHT22;2136;48.502;9.194;2022-07-22T14:55:51;36.80;36.40
4245;DHT22;2136;48.502;9.194;2022-07-22T14:58:19;36.70;36.30
4245;DHT22;2136;48.502;9.194;2022-07-22T15:00:45;36.50;36.10
4245;DHT22;2136;48.502;9.194;2022-07-22T15:03:13;36.20;35.90
4245;DHT22;2136;48.502;9.194;2022-07-22T15:05:40;36.00;36.20
4245;DHT22;2136;48.502;9.194;2022-07-22T15:08:08;35.90;36.70
4245;DHT22;2136;48.502;9.194;2022-07-22T15:10:35;35.70;36.60
4245;DHT22;2136;48.502;9.194;2022-07-22T15:13:03;35.50;37.30
4245;DHT22;2136;48.502;9.194;2022-07-22T15:15:31;35.30;37.60
4245;DHT22;2136;48.502;9.194;2022-07-22T15:17:57;35.10;38.40
4245;DHT22;2136;48.502;9.194;2022-07-22T15:20:25;34.80;37.80
4245;DHT22;2136;48.502;9.194;2022-07-22T15:22:52;34.70;38.80
4245;DHT22;2136;48.502;9.194;2022-07-22T15:25:19;34.50;38.90
4245;DHT22;2136;48.502;9.194;2022-07-22T15:27:47;34.30;39.20
4245;DHT22;2136;48.502;9.194;2022-07-22T15:30:16;34.20;39.70
4245;DHT22;2136;48.502;9.194;2022-07-22T15:32:43;34.00;40.00
4245;DHT22;2136;48.502;9.194;2022-07-22T15:35:10;33.90;40.30
4245;DHT22;2136;48.502;9.194;2022-07-22T15:37:37;33.70;40.10
4245;DHT22;2136;48.502;9.194;2022-07-22T15:40:07;33.70;40.30
4245;DHT22;2136;48.502;9.194;2022-07-22T15:42:34;33.50;40.60
4245;DHT22;2136;48.502;9.194;2022-07-22T15:45:01;33.40;40.60
4245;DHT22;2136;48.502;9.194;2022-07-22T15:47:29;33.40;40.80
4245;DHT22;2136;48.502;9.194;2022-07-22T15:49:56;33.30;41.10
4245;DHT22;2136;48.502;9.194;2022-07-22T15:52:23;33.20;41.10
4245;DHT22;2136;48.502;9.194;2022-07-22T15:54:50;33.20;41.20
4245;DHT22;2136;48.502;9.194;2022-07-22T15:57:18;33.20;41.00
4245;DHT22;2136;48.502;9.194;2022-07-22T16:00:03;33.40;41.00
4245;DHT22;2136;48.502;9.194;2022-07-22T16:02:32;33.60;40.50
4245;DHT22;2136;48.502;9.194;2022-07-22T16:04:58;33.70;41.20
4245;DHT22;2136;48.502;9.194;2022-07-22T16:07:25;33.90;40.80
4245;DHT22;2136;48.502;9.194;2022-07-22T16:09:52;34.20;39.80
4245;DHT22;2136;48.502;9.194;2022-07-22T16:12:19;34.40;41.00
4245;DHT22;2136;48.502;9.194;2022-07-22T16:14:46;34.50;40.20
4245;DHT22;2136;48.502;9.194;2022-07-22T16:17:13;34.60;40.10
4245;DHT22;2136;48.502;9.194;2022-07-22T16:19:41;34.70;40.20
4245;DHT22;2136;48.502;9.194;2022-07-22T16:22:08;34.80;39.60
4245;DHT22;2136;48.502;9.194;2022-07-22T16:24:35;34.80;39.50